sensor_id;sensor_type;location;lat;lon;timestamp;pressure;altitude;pressure_sealevel;temperature;humidity
49843;BME280;55559;48.898;9.184;2023-03-20T00:00:24;98676.19;;;8.83;100.00
49843;BME280;55559;48.898;9.184;2023-03-20T00:02:53;98681.63;;;8.92;100.00
49843;BME280;55559;48.898;9.184;2023-03-20T00:05:22;98669.19;;;8.82;100.00
49843;BME280;55559;48.898;9.184;2023-03-20T00:07:50;98676.78;;;8.75;100.00
49843;BME280;55559;48.898;9.184;2023-03-20T00:10:19;98681.25;;;8.74;100.00
49843;BME280;55559;48.898;9.184;2023-03-20T00:12:49;98678.25;;;8.79;100.00
49843;BME280;55559;48.898;9.184;2023-03-20T00:15:25;98669.22;;;8.70;100.00
49843;BME280;55559;48.898;9.184;2023-03-20T00:17:53;98679.91;;;8.80;100.00
49843;BME280;55559;48.898;9.184;2023-03-20T00:20:20;98673.78;;;8.80;100.00
49843;BME280;55559;48.898;9.184;2023-03-20T00:22:48;98675.94;;;8.74;100.00
49843;BME280;55559;48.898;9.184;2023-03-20T00:25:18;98677.53;;;8.77;100.00
49843;BME280;55559;48.898;9.184;2023-03-20T00:27:47;98680.66;;;8.71;100.00
49843;BME280;55559;48.898;9.184;2023-03-20T00:30:19;98678.34;;;8.78;100.00
49843;BME280;55559;48.898;9.184;2023-03-20T00:32:48;98678.47;;;8.76;100.00
49843;BME280;55559;48.898;9.184;2023-03-20T00:35:22;98682.56;;;8.80;100.00
49843;BME280;55559;48.898;9.184;2023-03-20T00:37:51;98691.28;;;8.82;100.00
49843;BME280;55559;48.898;9.184;2023-03-20T00:40:20;98688.34;;;8.85;100.00
49843;BME280;55559;48.898;9.184;2023-03-20T00:42:51;98693.16;;;8.80;100.00
49843;BME280;55559;48.898;9.184;2023-03-20T00:45:23;98683.66;;;8.78;100.00
49843;BME280;55559;48.898;9.184;2023-03-20T00:47:50;98680.41;;;8.85;100.00
49843;BME280;55559;48.898;9.184;2023-03-20T00:50:20;98679.78;;;8.82;100.00
49843;BME280;55559;48.898;9.184;2023-03-20T00:52:49;98687.63;;;8.83;100.00
49843;BME280;55559;48.898;9.184;2023-03-20T00:55:17;98689.09;;;8.87;100.00
49843;BME280;55559;48.898;9.184;2023-03-20T00:57:46;98691.00;;;8.85;100.00
49843;BME280;55559;48.898;9.184;2023-03-20T01:00:33;98690.16;;;8.85;100.00
49843;BME280;55559;48.898;9.184;2023-03-20T01:03:13;98685.84;;;8.84;100.00
49843;BME280;55559;48.898;9.184;2023-03-20T01:05:42;98693.06;;;8.82;100.00
49843;BME280;55559;48.898;9.184;2023-03-20T01:08:14;98695.47;;;8.85;100.00
49843;BME280;55559;48.898;9.184;2023-03-20T01:10:43;98701.50;;;8.87;100.00
49843;BME280;55559;48.898;9.184;2023-03-20T01:13:17;98692.81;;;8.85;100.00
49843;BME280;55559;48.898;9.184;2023-03-20T01:15:48;98692.69;;;8.86;100.00
49843;BME280;55559;48.898;9.184;2023-03-20T01:18:17;98693.41;;;8.88;100.00
49843;BME280;55559;48.898;9.184;2023-03-20T01:20:45;98690.06;;;8.86;100.00
49843;BME280;55559;48.898;9.184;2023-03-20T01:23:14;98692.59;;;8.88;100.00
49843;BME280;55559;48.898;9.184;2023-03-20T01:25:41;98695.84;;;8.91;100.00
49843;BME280;55559;48.898;9.184;2023-03-20T01:28:14;98688.59;;;8.93;100.00
49843;BME280;55559;48.898;9.184;2023-03-20T01:30:43;98690.41;;;8.93;100.00
49843;BME280;55559;48.898;9.184;2023-03-20T01:33:16;98688.88;;;8.90;100.00
49843;BME280;55559;48.898;9.184;2023-03-20T01:35:48;98686.81;;;8.94;100.00
49843;BME280;55559;48.898;9.184;2023-03-20T01:38:19;98687.53;;;8.96;100.00
49843;BME280;55559;48.898;9.184;2023-03-20T01:40:52;98691.13;;;8.95;100.00
49843;BME280;55559;48.898;9.184;2023-03-20T01:43:23;98693.78;;;8.95;100.00
49843;BME280;55559;48.898;9.184;2023-03-20T01:45:59;98699.47;;;8.90;100.00
49843;BME280;55559;48.898;9.184;2023-03-20T01:48:54;98695.94;;;8.90;100.00
49843;BME280;55559;48.898;9.184;2023-03-20T01:51:24;98695.13;;;8.89;100.00
49843;BME280;55559;48.898;9.184;2023-03-20T01:53:58;98699.31;;;8.92;100.00
49843;BME280;55559;48.898;9.184;2023-03-20T01:56:32;98707.16;;;8.93;100.00
49843;BME280;55559;48.898;9.184;2023-03-20T01:59:05;98705.59;;;8.91;100.00
49843;BME280;55559;48.898;9.184;2023-03-20T02:01:35;98705.59;;;8.91;100.00
49843;BME280;55559;48.898;9.184;2023-03-20T02:04:05;98711.16;;;8.88;100.00
49843;BME280;55559;48.898;9.184;2023-03-20T02:06:44;98711.97;;;8.88;100.00
49843;BME280;55559;48.898;9.184;2023-03-20T02:09:34;98718.38;;;8.86;100.00
49843;BME280;55559;48.898;9.184;2023-03-20T02:12:05;98721.63;;;8.78;100.00
49843;BME280;55559;48.898;9.184;2023-03-20T02:14:33;98719.31;;;8.73;100.00
49843;BME280;55559;48.898;9.184;2023-03-20T02:17:13;98719.47;;;8.72;100.00
49843;BME280;55559;48.898;9.184;2023-03-20T02:19:57;98721.97;;;8.73;100.00
49843;BME280;55559;48.898;9.184;2023-03-20T02:22:52;98725.59;;;8.72;100.00
49843;BME280;55559;48.898;9.184;2023-03-20T02:32:14;98728.97;;;8.74;100.00
49843;BME280;55559;48.898;9.184;2023-03-20T02:35:07;98723.09;;;8.82;100.00
49843;BME280;55559;48.898;9.184;2023-03-20T02:37:55;98729.34;;;8.81;100.00
49843;BME280;55559;48.898;9.184;2023-03-20T02:40:32;98726.31;;;8.74;100.00
49843;BME280;55559;48.898;9.184;2023-03-20T02:43:09;98721.50;;;8.80;100.00
49843;BME280;55559;48.898;9.184;2023-03-20T02:45:49;98721.63;;;8.78;100.00
49843;BME280;55559;48.898;9.184;2023-03-20T02:48:28;98721.50;;;8.80;100.00
49843;BME280;55559;48.898;9.184;2023-03-20T02:51:02;98720.44;;;8.82;100.00
49843;BME280;55559;48.898;9.184;2023-03-20T02:53:46;98716.91;;;8.82;100.00
49843;BME280;55559;48.898;9.184;2023-03-20T02:56:20;98713.66;;;8.78;100.00
49843;BME280;55559;48.898;9.184;2023-03-20T02:58:53;98720.66;;;8.79;100.00
49843;BME280;55559;48.898;9.184;2023-03-20T03:01:26;98715.13;;;8.82;100.00
49843;BME280;55559;48.898;9.184;2023-03-20T03:04:01;98718.03;;;8.79;100.00
49843;BME280;55559;48.898;9.184;2023-03-20T03:06:31;98718.03;;;8.79;100.00
49843;BME280;55559;48.898;9.184;2023-03-20T03:09:02;98724.28;;;8.78;100.00
49843;BME280;55559;48.898;9.184;2023-03-20T03:11:38;98721.84;;;8.75;100.00
49843;BME280;55559;48.898;9.184;2023-03-20T03:14:13;98728.84;;;8.76;100.00
49843;BME280;55559;48.898;9.184;2023-03-20T03:16:43;98729.56;;;8.78;100.00
49843;BME280;55559;48.898;9.184;2023-03-20T03:19:13;98722.72;;;8.75;100.00
49843;BME280;55559;48.898;9.184;2023-03-20T03:21:45;98720.91;;;8.76;100.00
49843;BME280;55559;48.898;9.184;2023-03-20T03:24:26;98721.13;;;8.73;100.00
49843;BME280;55559;48.898;9.184;2023-03-20T03:26:55;98721.47;;;8.68;100.00
49843;BME280;55559;48.898;9.184;2023-03-20T03:29:25;98733.91;;;8.68;100.00
49843;BME280;55559;48.898;9.184;2023-03-20T03:31:55;98735.72;;;8.67;100.00
49843;BME280;55559;48.898;9.184;2023-03-20T03:34:23;98732.94;;;8.69;100.00
49843;BME280;55559;48.898;9.184;2023-03-20T03:37:00;98732.94;;;8.69;100.00
49843;BME280;55559;48.898;9.184;2023-03-20T03:39:37;98730.19;;;8.70;100.00
49843;BME280;55559;48.898;9.184;2023-03-20T03:42:14;98724.28;;;8.67;100.00
49843;BME280;55559;48.898;9.184;2023-03-20T03:44:54;98735.00;;;8.65;100.00
49843;BME280;55559;48.898;9.184;2023-03-20T03:47:30;98740.03;;;8.68;100.00
49843;BME280;55559;48.898;9.184;2023-03-20T03:50:02;98746.94;;;8.71;100.00
49843;BME280;55559;48.898;9.184;2023-03-20T03:52:32;98742.13;;;8.76;100.00
49843;BME280;55559;48.898;9.184;2023-03-20T03:55:05;98731.50;;;8.76;100.00
49843;BME280;55559;48.898;9.184;2023-03-20T03:57:38;98735.50;;;8.70;100.00
49843;BME280;55559;48.898;9.184;2023-03-20T04:00:13;98731.25;;;8.68;100.00
49843;BME280;55559;48.898;9.184;2023-03-20T04:02:44;98734.63;;;8.70;100.00
49843;BME280;55559;48.898;9.184;2023-03-20T04:05:15;98745.34;;;8.68;100.00
49843;BME280;55559;48.898;9.184;2023-03-20T04:07:44;98741.75;;;8.69;100.00
49843;BME280;55559;48.898;9.184;2023-03-20T04:10:13;98741.75;;;8.69;100.00
49843;BME280;55559;48.898;9.184;2023-03-20T04:12:43;98752.34;;;8.69;100.00
49843;BME280;55559;48.898;9.184;2023-03-20T04:15:11;98749.19;;;8.64;100.00
49843;BME280;55559;48.898;9.184;2023-03-20T04:17:41;98755.56;;;8.62;100.00
49843;BME280;55559;48.898;9.184;2023-03-20T04:20:11;98748.59;;;8.61;100.00
49843;BME280;55559;48.898;9.184;2023-03-20T04:22:39;98747.63;;;8.62;100.00
49843;BME280;55559;48.898;9.184;2023-03-20T04:25:18;98744.72;;;8.65;100.00
49843;BME280;55559;48.898;9.184;2023-03-20T04:27:46;98736.78;;;8.65;100.00
49843;BME280;55559;48.898;9.184;2023-03-20T04:30:34;98738.59;;;8.64;100.00
49843;BME280;55559;48.898;9.184;2023-03-20T04:33:15;98742.56;;;8.59;100.00
49843;BME280;55559;48.898;9.184;2023-03-20T04:36:04;98734.88;;;8.67;100.00
49843;BME280;55559;48.898;9.184;2023-03-20T04:38:32;98734.34;;;8.62;100.00
49843;BME280;55559;48.898;9.184;2023-03-20T04:41:02;98734.34;;;8.62;100.00
49843;BME280;55559;48.898;9.184;2023-03-20T04:43:30;98734.25;;;8.63;100.00
49843;BME280;55559;48.898;9.184;2023-03-20T04:45:58;98738.47;;;8.66;100.00
49843;BME280;55559;48.898;9.184;2023-03-20T04:48:26;98742.31;;;8.62;100.00
49843;BME280;55559;48.898;9.184;2023-03-20T04:50:54;98744.47;;;8.56;100.00
49843;BME280;55559;48.898;9.184;2023-03-20T04:53:28;98742.81;;;8.55;100.00
49843;BME280;55559;48.898;9.184;2023-03-20T04:55:56;98748.00;;;8.57;100.00
49843;BME280;55559;48.898;9.184;2023-03-20T04:58:25;98751.69;;;8.54;100.00
49843;BME280;55559;48.898;9.184;2023-03-20T05:00:53;98749.66;;;8.58;100.00
49843;BME280;55559;48.898;9.184;2023-03-20T05:03:20;98755.22;;;8.55;100.00
49843;BME280;55559;48.898;9.184;2023-03-20T05:05:51;98756.88;;;8.56;100.00
49843;BME280;55559;48.898;9.184;2023-03-20T05:08:20;98752.44;;;8.56;100.00
49843;BME280;55559;48.898;9.184;2023-03-20T05:10:52;98756.88;;;8.56;100.00
49843;BME280;55559;48.898;9.184;2023-03-20T05:13:44;98757.28;;;8.63;100.00
49843;BME280;55559;48.898;9.184;2023-03-20T05:16:34;98763.28;;;8.65;100.00
49843;BME280;55559;48.898;9.184;2023-03-20T05:19:31;98761.84;;;8.61;100.00
49843;BME280;55559;48.898;9.184;2023-03-20T05:22:19;98766.53;;;8.57;100.00
49843;BME280;55559;48.898;9.184;2023-03-20T05:25:15;98770.16;;;8.56;100.00
49843;BME280;55559;48.898;9.184;2023-03-20T05:27:56;98759.19;;;8.61;100.00
49843;BME280;55559;48.898;9.184;2023-03-20T05:30:46;98768.09;;;8.60;100.00
49843;BME280;55559;48.898;9.184;2023-03-20T05:33:34;98762.91;;;8.58;100.00
49843;BME280;55559;48.898;9.184;2023-03-20T05:36:11;98764.38;;;8.62;100.00
49843;BME280;55559;48.898;9.184;2023-03-20T05:39:02;98766.16;;;8.62;100.00
49843;BME280;55559;48.898;9.184;2023-03-20T05:41:43;98764.88;;;8.67;100.00
49843;BME280;55559;48.898;9.184;2023-03-20T05:44:29;98777.53;;;8.64;100.00
49843;BME280;55559;48.898;9.184;2023-03-20T05:47:13;98774.13;;;8.62;100.00
49843;BME280;55559;48.898;9.184;2023-03-20T05:50:01;98771.13;;;8.66;100.00
49843;BME280;55559;48.898;9.184;2023-03-20T05:52:49;98769.34;;;8.67;100.00
49843;BME280;55559;48.898;9.184;2023-03-20T05:55:28;98778.03;;;8.69;100.00
49843;BME280;55559;48.898;9.184;2023-03-20T05:58:16;98784.03;;;8.71;100.00
49843;BME280;55559;48.898;9.184;2023-03-20T06:01:02;98787.66;;;8.70;100.00
49843;BME280;55559;48.898;9.184;2023-03-20T06:03:50;98785.75;;;8.72;100.00
49843;BME280;55559;48.898;9.184;2023-03-20T06:06:35;98788.78;;;8.79;100.00
49843;BME280;55559;48.898;9.184;2023-03-20T06:09:03;98780.09;;;8.88;100.00
49843;BME280;55559;48.898;9.184;2023-03-20T06:11:32;98786.50;;;8.97;100.00
49843;BME280;55559;48.898;9.184;2023-03-20T06:14:00;98786.50;;;8.97;100.00
49843;BME280;55559;48.898;9.184;2023-03-20T06:16:36;98788.69;;;9.03;100.00
49843;BME280;55559;48.898;9.184;2023-03-20T06:19:05;98797.97;;;9.08;100.00
49843;BME280;55559;48.898;9.184;2023-03-20T06:21:32;98797.13;;;9.08;100.00
49843;BME280;55559;48.898;9.184;2023-03-20T06:24:01;98793.03;;;9.15;100.00
49843;BME280;55559;48.898;9.184;2023-03-20T06:26:28;98792.91;;;9.17;100.00
49843;BME280;55559;48.898;9.184;2023-03-20T06:29:02;98782.78;;;9.22;100.00
49843;BME280;55559;48.898;9.184;2023-03-20T06:31:31;98776.03;;;9.29;100.00
49843;BME280;55559;48.898;9.184;2023-03-20T06:34:00;98793.16;;;9.25;100.00
49843;BME280;55559;48.898;9.184;2023-03-20T06:36:36;98778.09;;;9.37;100.00
49843;BME280;55559;48.898;9.184;2023-03-20T06:39:10;98777.97;;;9.38;100.00
49843;BME280;55559;48.898;9.184;2023-03-20T06:41:37;98775.66;;;9.45;100.00
49843;BME280;55559;48.898;9.184;2023-03-20T06:44:08;98783.41;;;9.48;100.00
49843;BME280;55559;48.898;9.184;2023-03-20T06:46:54;98776.38;;;9.58;100.00
49843;BME280;55559;48.898;9.184;2023-03-20T06:49:22;98774.69;;;9.68;100.00
49843;BME280;55559;48.898;9.184;2023-03-20T06:51:51;98779.63;;;9.73;100.00
49843;BME280;55559;48.898;9.184;2023-03-20T06:54:23;98774.84;;;9.88;100.00
49843;BME280;55559;48.898;9.184;2023-03-20T06:56:51;98785.94;;;10.04;100.00
49843;BME280;55559;48.898;9.184;2023-03-20T06:59:20;98788.56;;;10.16;100.00
49843;BME280;55559;48.898;9.184;2023-03-20T07:01:53;98786.00;;;10.26;100.00
49843;BME280;55559;48.898;9.184;2023-03-20T07:04:21;98795.59;;;10.49;100.00
49843;BME280;55559;48.898;9.184;2023-03-20T07:06:54;98788.78;;;10.56;100.00
49843;BME280;55559;48.898;9.184;2023-03-20T07:09:21;98793.00;;;10.59;100.00
49843;BME280;55559;48.898;9.184;2023-03-20T07:11:49;98799.75;;;10.63;100.00
49843;BME280;55559;48.898;9.184;2023-03-20T07:14:17;98802.59;;;10.50;100.00
49843;BME280;55559;48.898;9.184;2023-03-20T07:16:52;98804.16;;;10.53;100.00
49843;BME280;55559;48.898;9.184;2023-03-20T07:19:21;98802.72;;;10.49;100.00
49843;BME280;55559;48.898;9.184;2023-03-20T07:21:58;98811.47;;;10.28;100.00
49843;BME280;55559;48.898;9.184;2023-03-20T07:24:32;98817.19;;;10.12;100.00
49843;BME280;55559;48.898;9.184;2023-03-20T07:27:00;98816.75;;;10.07;100.00
49843;BME280;55559;48.898;9.184;2023-03-20T07:29:28;98816.63;;;9.97;100.00
49843;BME280;55559;48.898;9.184;2023-03-20T07:31:57;98814.44;;;10.02;100.00
49843;BME280;55559;48.898;9.184;2023-03-20T07:34:30;98816.81;;;10.17;100.00
49843;BME280;55559;48.898;9.184;2023-03-20T07:37:00;98817.50;;;10.41;100.00
49843;BME280;55559;48.898;9.184;2023-03-20T07:39:30;98806.69;;;10.54;100.00
49843;BME280;55559;48.898;9.184;2023-03-20T07:42:17;98813.97;;;10.52;100.00
49843;BME280;55559;48.898;9.184;2023-03-20T07:44:56;98810.91;;;10.57;100.00
49843;BME280;55559;48.898;9.184;2023-03-20T07:47:24;98813.47;;;10.47;100.00
49843;BME280;55559;48.898;9.184;2023-03-20T07:49:51;98807.41;;;10.56;100.00
49843;BME280;55559;48.898;9.184;2023-03-20T07:52:20;98815.53;;;10.76;100.00
49843;BME280;55559;48.898;9.184;2023-03-20T07:54:47;98801.13;;;11.00;100.00
49843;BME280;55559;48.898;9.184;2023-03-20T07:57:15;98801.94;;;11.21;100.00
49843;BME280;55559;48.898;9.184;2023-03-20T07:59:43;98806.59;;;11.60;100.00
49843;BME280;55559;48.898;9.184;2023-03-20T08:02:13;98808.00;;;11.33;100.00
49843;BME280;55559;48.898;9.184;2023-03-20T08:04:41;98809.28;;;11.08;100.00
49843;BME280;55559;48.898;9.184;2023-03-20T08:07:09;98805.16;;;11.25;100.00
49843;BME280;55559;48.898;9.184;2023-03-20T08:09:38;98814.09;;;11.14;100.00
49843;BME280;55559;48.898;9.184;2023-03-20T08:12:05;98812.06;;;11.06;100.00
49843;BME280;55559;48.898;9.184;2023-03-20T08:14:33;98814.09;;;10.72;100.00
49843;BME280;55559;48.898;9.184;2023-03-20T08:17:03;98820.25;;;10.72;100.00
49843;BME280;55559;48.898;9.184;2023-03-20T08:19:30;98813.44;;;10.58;100.00
49843;BME280;55559;48.898;9.184;2023-03-20T08:21:58;98813.75;;;10.65;100.00
49843;BME280;55559;48.898;9.184;2023-03-20T08:24:25;98818.94;;;10.46;100.00
49843;BME280;55559;48.898;9.184;2023-03-20T08:26:54;98820.69;;;10.77;100.00
49843;BME280;55559;48.898;9.184;2023-03-20T08:29:22;98814.28;;;11.01;100.00
49843;BME280;55559;48.898;9.184;2023-03-20T08:31:49;98824.16;;;11.10;100.00
49843;BME280;55559;48.898;9.184;2023-03-20T08:34:17;98818.75;;;11.22;100.00
49843;BME280;55559;48.898;9.184;2023-03-20T08:36:44;98814.69;;;10.96;100.00
49843;BME280;55559;48.898;9.184;2023-03-20T08:39:12;98824.97;;;11.11;100.00
49843;BME280;55559;48.898;9.184;2023-03-20T08:41:39;98813.50;;;11.41;100.00
49843;BME280;55559;48.898;9.184;2023-03-20T08:44:10;98820.50;;;11.73;100.00
49843;BME280;55559;48.898;9.184;2023-03-20T08:46:37;98812.47;;;11.94;100.00
49843;BME280;55559;48.898;9.184;2023-03-20T08:49:05;98811.13;;;12.19;100.00
49843;BME280;55559;48.898;9.184;2023-03-20T08:51:33;98803.53;;;12.15;100.00
49843;BME280;55559;48.898;9.184;2023-03-20T08:54:00;98811.41;;;12.16;100.00
49843;BME280;55559;48.898;9.184;2023-03-20T08:56:28;98807.06;;;12.35;100.00
49843;BME280;55559;48.898;9.184;2023-03-20T08:58:55;98818.72;;;12.43;100.00
49843;BME280;55559;48.898;9.184;2023-03-20T09:01:24;98812.69;;;12.32;100.00
49843;BME280;55559;48.898;9.184;2023-03-20T09:03:51;98810.16;;;12.50;100.00
49843;BME280;55559;48.898;9.184;2023-03-20T09:06:19;98816.63;;;12.47;100.00
49843;BME280;55559;48.898;9.184;2023-03-20T09:08:46;98818.53;;;12.06;100.00
49843;BME280;55559;48.898;9.184;2023-03-20T09:11:14;98821.06;;;12.17;100.00
49843;BME280;55559;48.898;9.184;2023-03-20T09:13:42;98818.91;;;11.91;100.00
49843;BME280;55559;48.898;9.184;2023-03-20T09:16:09;98820.34;;;11.96;100.00
49843;BME280;55559;48.898;9.184;2023-03-20T09:18:38;98825.53;;;12.07;100.00
49843;BME280;55559;48.898;9.184;2023-03-20T09:21:06;98826.66;;;12.04;100.00
49843;BME280;55559;48.898;9.184;2023-03-20T09:23:34;98823.88;;;11.75;100.00
49843;BME280;55559;48.898;9.184;2023-03-20T09:26:02;98811.25;;;11.67;100.00
49843;BME280;55559;48.898;9.184;2023-03-20T09:28:29;98819.19;;;11.58;100.00
49843;BME280;55559;48.898;9.184;2023-03-20T09:30:58;98821.84;;;11.58;100.00
49843;BME280;55559;48.898;9.184;2023-03-20T09:33:26;98824.22;;;11.51;100.00
49843;BME280;55559;48.898;9.184;2023-03-20T09:35:55;98824.84;;;11.33;100.00
49843;BME280;55559;48.898;9.184;2023-03-20T09:38:22;98824.59;;;11.46;100.00
49843;BME280;55559;48.898;9.184;2023-03-20T09:40:52;98829.38;;;11.83;100.00
49843;BME280;55559;48.898;9.184;2023-03-20T09:43:41;98818.31;;;11.88;100.00
49843;BME280;55559;48.898;9.184;2023-03-20T09:46:20;98831.00;;;11.96;100.00
49843;BME280;55559;48.898;9.184;2023-03-20T09:48:56;98823.16;;;12.14;100.00
49843;BME280;55559;48.898;9.184;2023-03-20T09:51:35;98834.97;;;12.31;100.00
49843;BME280;55559;48.898;9.184;2023-03-20T09:54:07;98832.59;;;11.87;100.00
49843;BME280;55559;48.898;9.184;2023-03-20T09:56:36;98841.50;;;11.97;100.00
49843;BME280;55559;48.898;9.184;2023-03-20T09:59:05;98841.84;;;12.23;100.00
49843;BME280;55559;48.898;9.184;2023-03-20T10:01:35;98835.66;;;12.33;100.00
49843;BME280;55559;48.898;9.184;2023-03-20T10:04:07;98831.34;;;12.41;100.00
49843;BME280;55559;48.898;9.184;2023-03-20T10:06:37;98840.63;;;12.47;100.00
49843;BME280;55559;48.898;9.184;2023-03-20T10:09:13;98831.63;;;12.87;100.00
49843;BME280;55559;48.898;9.184;2023-03-20T10:11:54;98832.44;;;13.07;100.00
49843;BME280;55559;48.898;9.184;2023-03-20T10:14:28;98829.56;;;13.48;100.00
49843;BME280;55559;48.898;9.184;2023-03-20T10:17:10;98829.34;;;13.59;100.00
49843;BME280;55559;48.898;9.184;2023-03-20T10:19:43;98834.75;;;13.49;100.00
49843;BME280;55559;48.898;9.184;2023-03-20T10:22:20;98836.00;;;13.55;100.00
49843;BME280;55559;48.898;9.184;2023-03-20T10:24:54;98847.97;;;13.31;100.00
49843;BME280;55559;48.898;9.184;2023-03-20T10:27:25;98846.53;;;12.60;100.00
49843;BME280;55559;48.898;9.184;2023-03-20T10:30:02;98841.97;;;12.12;100.00
49843;BME280;55559;48.898;9.184;2023-03-20T10:32:42;98844.94;;;12.28;100.00
49843;BME280;55559;48.898;9.184;2023-03-20T10:35:19;98843.34;;;11.97;100.00
49843;BME280;55559;48.898;9.184;2023-03-20T10:37:59;98846.16;;;12.05;100.00
49843;BME280;55559;48.898;9.184;2023-03-20T10:40:30;98840.41;;;12.00;100.00
49843;BME280;55559;48.898;9.184;2023-03-20T10:43:03;98832.34;;;11.90;100.00
49843;BME280;55559;48.898;9.184;2023-03-20T10:45:37;98833.41;;;12.08;100.00
49843;BME280;55559;48.898;9.184;2023-03-20T10:48:14;98835.28;;;12.47;100.00
49843;BME280;55559;48.898;9.184;2023-03-20T10:50:46;98827.56;;;12.54;100.00
49843;BME280;55559;48.898;9.184;2023-03-20T10:53:29;98828.25;;;12.36;100.00
49843;BME280;55559;48.898;9.184;2023-03-20T10:56:01;98822.66;;;12.78;100.00
49843;BME280;55559;48.898;9.184;2023-03-20T10:58:31;98826.28;;;12.38;100.00
49843;BME280;55559;48.898;9.184;2023-03-20T11:01:00;98824.00;;;12.04;100.00
49843;BME280;55559;48.898;9.184;2023-03-20T11:03:29;98811.69;;;12.23;100.00
49843;BME280;55559;48.898;9.184;2023-03-20T11:06:00;98815.47;;;12.20;100.00
49843;BME280;55559;48.898;9.184;2023-03-20T11:08:35;98814.22;;;12.63;100.00
49843;BME280;55559;48.898;9.184;2023-03-20T11:11:04;98818.69;;;12.73;100.00
49843;BME280;55559;48.898;9.184;2023-03-20T11:13:34;98810.38;;;13.90;100.00
49843;BME280;55559;48.898;9.184;2023-03-20T11:16:18;98833.44;;;13.63;100.00
49843;BME280;55559;48.898;9.184;2023-03-20T11:18:47;98819.59;;;13.40;100.00
49843;BME280;55559;48.898;9.184;2023-03-20T11:21:19;98825.19;;;12.70;100.00
49843;BME280;55559;48.898;9.184;2023-03-20T11:23:50;98825.34;;;13.35;100.00
49843;BME280;55559;48.898;9.184;2023-03-20T11:26:19;98822.75;;;13.06;100.00
49843;BME280;55559;48.898;9.184;2023-03-20T11:28:55;98818.38;;;13.05;100.00
49843;BME280;55559;48.898;9.184;2023-03-20T11:31:27;98817.00;;;12.91;100.00
49843;BME280;55559;48.898;9.184;2023-03-20T11:34:08;98823.06;;;12.44;100.00
49843;BME280;55559;48.898;9.184;2023-03-20T11:36:37;98826.16;;;12.59;100.00
49843;BME280;55559;48.898;9.184;2023-03-20T11:39:12;98814.66;;;12.78;100.00
49843;BME280;55559;48.898;9.184;2023-03-20T11:41:47;98815.84;;;13.03;100.00
49843;BME280;55559;48.898;9.184;2023-03-20T11:44:34;98810.66;;;13.59;100.00
49843;BME280;55559;48.898;9.184;2023-03-20T11:47:04;98813.41;;;13.67;100.00
49843;BME280;55559;48.898;9.184;2023-03-20T11:49:32;98812.19;;;13.62;100.00
49843;BME280;55559;48.898;9.184;2023-03-20T11:52:01;98804.31;;;14.33;100.00
49843;BME280;55559;48.898;9.184;2023-03-20T11:54:30;98810.91;;;14.11;99.94
49843;BME280;55559;48.898;9.184;2023-03-20T11:56:59;98801.59;;;14.61;93.54
49843;BME280;55559;48.898;9.184;2023-03-20T11:59:29;98818.09;;;13.93;94.15
49843;BME280;55559;48.898;9.184;2023-03-20T12:02:00;98805.13;;;13.23;99.42
49843;BME280;55559;48.898;9.184;2023-03-20T12:04:30;98804.94;;;12.87;100.00
49843;BME280;55559;48.898;9.184;2023-03-20T12:07:02;98803.91;;;13.08;100.00
49843;BME280;55559;48.898;9.184;2023-03-20T12:09:41;98804.28;;;13.23;98.75
49843;BME280;55559;48.898;9.184;2023-03-20T12:12:17;98804.41;;;13.31;100.00
49843;BME280;55559;48.898;9.184;2023-03-20T12:14:53;98790.84;;;13.05;100.00
49843;BME280;55559;48.898;9.184;2023-03-20T12:17:39;98804.38;;;13.40;100.00
49843;BME280;55559;48.898;9.184;2023-03-20T12:20:22;98795.88;;;13.17;98.01
49843;BME280;55559;48.898;9.184;2023-03-20T12:22:58;98799.63;;;14.18;93.81
49843;BME280;55559;48.898;9.184;2023-03-20T12:25:32;98786.06;;;13.55;94.29
49843;BME280;55559;48.898;9.184;2023-03-20T12:28:04;98783.13;;;13.49;94.44
49843;BME280;55559;48.898;9.184;2023-03-20T12:30:50;98778.97;;;13.36;96.63
49843;BME280;55559;48.898;9.184;2023-03-20T12:33:27;98776.63;;;13.61;98.17
49843;BME280;55559;48.898;9.184;2023-03-20T12:35:57;98778.53;;;13.31;98.76
49843;BME280;55559;48.898;9.184;2023-03-20T12:38:27;98768.56;;;13.89;92.95
49843;BME280;55559;48.898;9.184;2023-03-20T12:41:02;98770.66;;;13.67;92.44
49843;BME280;55559;48.898;9.184;2023-03-20T12:43:45;98764.31;;;13.40;96.15
49843;BME280;55559;48.898;9.184;2023-03-20T12:46:25;98759.53;;;14.36;87.99
49843;BME280;55559;48.898;9.184;2023-03-20T12:49:03;98751.66;;;13.98;90.31
49843;BME280;55559;48.898;9.184;2023-03-20T12:51:42;98761.56;;;14.06;84.57
49843;BME280;55559;48.898;9.184;2023-03-20T12:54:26;98754.69;;;14.21;85.00
49843;BME280;55559;48.898;9.184;2023-03-20T12:57:07;98754.47;;;14.32;84.22
49843;BME280;55559;48.898;9.184;2023-03-20T12:59:49;98745.31;;;14.17;81.34
49843;BME280;55559;48.898;9.184;2023-03-20T13:02:33;98744.88;;;14.22;82.49
49843;BME280;55559;48.898;9.184;2023-03-20T13:05:13;98753.84;;;13.85;88.76
49843;BME280;55559;48.898;9.184;2023-03-20T13:07:57;98754.28;;;13.52;92.19
49843;BME280;55559;48.898;9.184;2023-03-20T13:10:32;98752.72;;;13.60;89.01
49843;BME280;55559;48.898;9.184;2023-03-20T13:13:12;98749.97;;;14.15;85.99
49843;BME280;55559;48.898;9.184;2023-03-20T13:15:51;98747.59;;;14.12;84.52
49843;BME280;55559;48.898;9.184;2023-03-20T13:18:32;98742.94;;;14.68;81.14
49843;BME280;55559;48.898;9.184;2023-03-20T13:21:05;98739.47;;;14.76;80.13
49843;BME280;55559;48.898;9.184;2023-03-20T13:23:41;98731.50;;;14.22;80.18
49843;BME280;55559;48.898;9.184;2023-03-20T13:26:16;98732.38;;;14.12;81.29
49843;BME280;55559;48.898;9.184;2023-03-20T13:28:54;98735.28;;;13.83;82.78
49843;BME280;55559;48.898;9.184;2023-03-20T13:31:32;98735.09;;;14.75;76.23
49843;BME280;55559;48.898;9.184;2023-03-20T13:34:06;98717.41;;;14.38;79.65